Terminal Aerodrome Forecast
Issued by NWS Newport/Morehead City, NC

Home | Current Version | Previous Version | Text Only | Print | Product List | Glossary Off
Versions: 1 2 3 4 5 6 7 8 9 10 11 12 13 14 15 16 17

000
FTUS42 KMHX 141739
TAFEWN
TAF
KEWN 141739Z 1418/1518 33005KT P6SM OVC015
      TEMPO 1418/1419 OVC008
     FM150000 VRB03KT P6SM BKN020
     FM150600 00000KT 3SM BR SCT005
     FM151000 00000KT 1SM BR BKN005
     FM151400 22005KT P6SM SCT025=

USA.gov is the U.S. government's official web portal to all federal, state and local government web resources and services.